Terminal Aerodrome Forecast
Issued by NWS Omaha/Valley, NE

Home | Current Version | Previous Version | Graphics & Text | Print | Product List | Glossary On
Versions: 1 2 3 4 5 6 7 8 9 10 11 12 13 14 15 16 17 18 19
000
FTUS43 KOAX 270237 AAA
TAFOFK
TAF AMD
KOFK 270237Z 2703/2724 07013G20KT P6SM VCTS BKN050CB OVC150
      TEMPO 2703/2707 3SM TSRA OVC030CB
     FM270700 08013KT 5SM -SHRA OVC008
      TEMPO 2707/2710 TS OVC040CB
     FM271000 08015G23KT 5SM SHRA OVC008
     FM271600 09013KT 5SM SHRA OVC008
     FM272200 06010KT 5SM SHRA OVC008=

USA.gov is the U.S. government's official web portal to all federal, state and local government web resources and services.